YMML Airport Information

Runway Information
Runway 09 Length 7500 ft width 148 ft
Elevation 395 ft Threshold 0 ft Heading 94
Runway 27 Length 7500 ft Width 148 ft
Elevation 407 ft Threshold 0 ft Heading 274
Runway 16 Length 11998 ft width 197 ft
Elevation 432 ft Threshold 0 ft Heading 171
Runway 34 Length 11998 ft Width 197 ft
Elevation 330 ft Threshold 0 ft Heading 351
Airport Frequencies
Type APP Name APP Frequency 132 MHZ
Type ATIS Name ATIS Frequency 114.1 MHZ
Type CLD Name CLNC DEL Frequency 127.2 MHZ
Type DEP Name DEP Frequency 118.9 MHZ
Type GND Name GND Frequency 121.7 MHZ
Type TWR Name TWR Frequency 120.5 MHZ
Airport Navaids
Type NDB Name Bolinda Frequency 362 KHZ
Type NDB Name Epping Frequency 377 KHZ
Type VOR-DME Name Melbourne Frequency 114100 KHZ
Type NDB Name Rockdale Frequency 338 KHZ
Airport Weather Information & NOTAM
ADDS - METARS form results

(1447 UTC 20 April 2018)
Data provider http://aviationweather.gov/adds/metars/
 
METAR text: YMML 201430Z 30005KT 9999 BKN004 12/09 Q1021 FM1430 30006KT 6000 HZ FU BKN004
Conditions at: YMML (MELBOURNE INTL A, AU) observed 1430 UTC 20 April 2018
Temperature: 12.0°C (54°F)
Dewpoint: 9.0°C (48°F) [RH = 82%]
Pressure (altimeter): 30.15 inches Hg (1021.0 mb)
Winds: from the WNW (300 degrees) at 6 MPH (5 knots; 2.6 m/s)
Visibility: 6 or more miles (10+ km)
Ceiling: 400 feet AGL
Clouds: broken clouds at 400 feet AGL
Weather: no significant weather observed at this time

METAR text: YMML 201400Z 28007KT 9999 FEW003 BKN005 11/09 Q1021 FM1400 30006KT 6000 HZ FU BKN004
Conditions at: YMML (MELBOURNE INTL A, AU) observed 1400 UTC 20 April 2018
Temperature: 11.0°C (52°F)
Dewpoint: 9.0°C (48°F) [RH = 87%]
Pressure (altimeter): 30.15 inches Hg (1021.0 mb)
Winds: from the W (280 degrees) at 8 MPH (7 knots; 3.6 m/s)
Visibility: 6 or more miles (10+ km)
Ceiling: 500 feet AGL
Clouds: few clouds at 300 feet AGL
broken clouds at 500 feet AGL
Weather: no significant weather observed at this time

Forecast for: YMML (MELBOURNE INTL A, AU)
Text: TAF AMD YMML 201135Z 2012/2118 VRB05KT 6000 HZ FU SCT006
Forecast period: 1200 to 2300 UTC 20 April 2018
Forecast type: FROM: standard forecast or significant change
Winds: variable direction winds at 6 MPH (5 knots; 2.6 m/s)
Visibility: 4 miles (6 km)
Clouds: scattered clouds at 600 feet AGL
Weather: HZ FU  (haze, smoke)
Forecast for: YMML (MELBOURNE INTL A, AU)
Text: TAF AMD YMML 201135Z 2012/2118 VRB05KT 6000 HZ FU SCT006
Forecast period: 1200 to 2300 UTC 20 April 2018
Forecast type: FROM: standard forecast or significant change
Winds: variable direction winds at 6 MPH (5 knots; 2.6 m/s)
Visibility: 4 miles (6 km)
Clouds: scattered clouds at 600 feet AGL
Weather: HZ FU  (haze, smoke)
Forecast for: YMML (MELBOURNE INTL A, AU)
Text: TAF AMD YMML 201135Z 2012/2118 VRB05KT 6000 HZ FU SCT006
Forecast period: 2300 UTC 20 April 2018 to 1800 UTC 21 April 2018
Forecast type: BECOMING: Conditions expected to become as follows by 0100 UTC 21 April 2018
Winds: from the SSW (200 degrees) at 8 MPH (7 knots; 3.6 m/s)
Visibility: 6 or more miles (10+ km)
Weather: NSW  (no significant weather)
Forecast for: YMML (MELBOURNE INTL A, AU)
Text: TAF AMD YMML 201135Z 2012/2118 VRB05KT 6000 HZ FU SCT006
Forecast period: 2300 UTC 20 April 2018 to 1800 UTC 21 April 2018
Forecast type: BECOMING: Conditions expected to become as follows by 0100 UTC 21 April 2018
Winds: from the SSW (200 degrees) at 8 MPH (7 knots; 3.6 m/s)
Visibility: 6 or more miles (10+ km)
Weather: NSW  (no significant weather)
Forecast for: YMML (MELBOURNE INTL A, AU)
Text: TAF AMD YMML 201135Z 2012/2118 VRB05KT 6000 HZ FU SCT006
Forecast period: 1400 to 2300 UTC 20 April 2018
Forecast type: PROBABLE: 30 percent likelihood of the following during this time
Visibility: 0.31 miles (0.50 km)
Ceiling: 300 feet AGL
Clouds: broken clouds at 300 feet AGL
Weather: FG  (fog)
Forecast for: YMML (MELBOURNE INTL A, AU)
Text: TAF AMD YMML 201135Z 2012/2118 VRB05KT 6000 HZ FU SCT006
Forecast period: 1400 to 2300 UTC 20 April 2018
Forecast type: PROBABLE: 30 percent likelihood of the following during this time
Visibility: 0.31 miles (0.50 km)
Ceiling: 300 feet AGL
Clouds: broken clouds at 300 feet AGL
Weather: FG  (fog)